Time;durP1;ratioP1;P1;durP2;ratioP2;P2;SDS_P1;SDS_P2;PMS_P1;PMS_P2;Temp;Humidity;BMP_temperature;BMP_pressure;BME280_temperature;BME280_humidity;BME280_pressure;Samples;Min_cycle;Max_cycle;Signal;HPM_P1;HPM_P2
2022/05/04 00:00:10;;;;;;;3.60;2.97;;;15.30;99.90;;;;;;5065113;28;20469;-79
2022/05/04 00:02:39;;;;;;;3.60;3.00;;;15.10;99.90;;;;;;5064673;28;20470;-80
2022/05/04 00:05:09;;;;;;;5.90;4.50;;;15.00;99.90;;;;;;5065958;28;20800;-81
2022/05/04 00:07:37;;;;;;;3.87;3.53;;;15.00;99.90;;;;;;5059439;28;20793;-80
2022/05/04 00:10:08;;;;;;;5.10;3.90;;;15.10;99.90;;;;;;5060064;28;20539;-80
2022/05/04 00:12:36;;;;;;;8.07;4.40;;;15.10;99.90;;;;;;5059240;28;20560;-79
2022/05/04 00:15:05;;;;;;;5.00;4.10;;;15.10;99.90;;;;;;5066664;28;20453;-77
2022/05/04 00:17:34;;;;;;;4.60;3.70;;;14.90;99.90;;;;;;5066127;28;20527;-79
2022/05/04 00:20:02;;;;;;;3.47;3.00;;;14.60;99.90;;;;;;5062473;28;20475;-80
2022/05/04 00:22:30;;;;;;;4.07;3.67;;;14.60;99.90;;;;;;5057403;28;20544;-80
2022/05/04 00:24:58;;;;;;;4.20;3.50;;;14.80;99.90;;;;;;5061951;28;20460;-80
2022/05/04 00:27:28;;;;;;;5.13;4.00;;;14.80;99.90;;;;;;5060039;28;20504;-80
2022/05/04 00:29:56;;;;;;;5.10;4.13;;;14.90;99.90;;;;;;5058107;28;20466;-80
2022/05/04 00:32:24;;;;;;;4.10;3.80;;;15.00;99.90;;;;;;5063607;28;20481;-80
2022/05/04 00:34:52;;;;;;;4.43;3.30;;;15.00;99.90;;;;;;5062281;28;20450;-80
2022/05/04 00:37:21;;;;;;;4.67;3.10;;;15.00;99.90;;;;;;5065752;28;20528;-79
2022/05/04 00:39:49;;;;;;;4.07;3.23;;;15.00;99.90;;;;;;5058913;28;20459;-80
2022/05/04 00:42:19;;;;;;;4.57;3.50;;;15.00;99.90;;;;;;5058151;28;20468;-80
2022/05/04 00:44:50;;;;;;;4.60;3.37;;;14.90;99.90;;;;;;5059629;28;20453;-80
2022/05/04 00:47:19;;;;;;;3.60;3.30;;;14.80;99.90;;;;;;5058926;28;20498;-81
2022/05/04 00:49:49;;;;;;;3.73;3.30;;;14.80;99.90;;;;;;5063443;28;20540;-80
2022/05/04 00:52:19;;;;;;;4.30;3.90;;;14.80;99.90;;;;;;5061975;28;20587;-80
2022/05/04 00:54:50;;;;;;;3.50;3.20;;;14.80;99.90;;;;;;5064962;28;20959;-81
2022/05/04 00:58:54;;;;;;;4.90;3.40;;;14.80;99.90;;;;;;5067887;28;20863;-80
2022/05/04 01:00:12;;;;;;;3.93;3.63;;;14.80;99.90;;;;;;5065551;28;20449;-79
2022/05/04 01:02:42;;;;;;;3.80;2.97;;;14.90;99.90;;;;;;5059133;28;20459;-80
2022/05/04 01:05:11;;;;;;;4.27;3.57;;;14.80;99.90;;;;;;5065179;28;20448;-80
2022/05/04 01:07:41;;;;;;;3.70;3.33;;;14.70;99.90;;;;;;5064715;28;20554;-80
2022/05/04 01:10:11;;;;;;;6.80;3.60;;;14.50;99.90;;;;;;5066641;28;20448;-80
2022/05/04 01:12:46;;;;;;;3.43;3.13;;;14.70;99.90;;;;;;5059336;28;20557;-79
2022/05/04 01:15:16;;;;;;;3.80;3.50;;;14.50;99.90;;;;;;5063965;28;20451;-79
2022/05/04 01:17:45;;;;;;;4.80;4.30;;;14.60;99.90;;;;;;5062405;28;20483;-79
2022/05/04 01:20:13;;;;;;;4.03;3.57;;;14.70;99.90;;;;;;5067707;28;20452;-80
2022/05/04 01:22:43;;;;;;;4.20;3.40;;;14.60;99.90;;;;;;5065252;28;20834;-80
2022/05/04 01:25:12;;;;;;;3.30;3.00;;;14.60;99.90;;;;;;5098794;28;20456;-80
2022/05/04 01:27:40;;;;;;;3.80;3.10;;;14.60;99.90;;;;;;5061407;28;20840;-80
2022/05/04 01:30:11;;;;;;;4.77;3.53;;;14.50;99.90;;;;;;5066725;28;20824;-80
2022/05/04 01:32:39;;;;;;;3.57;3.20;;;14.50;99.90;;;;;;5062211;28;20465;-80
2022/05/04 01:35:08;;;;;;;3.07;2.70;;;14.50;99.90;;;;;;5064960;28;20481;-79
2022/05/04 01:37:37;;;;;;;4.10;3.50;;;14.50;99.90;;;;;;5062721;28;20448;-80
2022/05/04 01:40:08;;;;;;;4.57;3.30;;;14.50;99.90;;;;;;5064322;28;20455;-80
2022/05/04 01:42:36;;;;;;;2.77;2.57;;;14.50;99.90;;;;;;5065146;28;20480;-80
2022/05/04 01:45:07;;;;;;;4.53;3.50;;;14.50;99.90;;;;;;5070617;28;20460;-79
2022/05/04 01:47:36;;;;;;;3.10;2.70;;;14.40;99.90;;;;;;5064828;28;20468;-81
2022/05/04 01:50:05;;;;;;;4.40;4.00;;;14.50;99.90;;;;;;5064548;28;20464;-81
2022/05/04 01:52:33;;;;;;;3.57;3.10;;;14.50;99.90;;;;;;5053487;28;20471;-81
2022/05/04 01:55:02;;;;;;;3.40;3.07;;;14.40;99.90;;;;;;5095244;28;20460;-80
2022/05/04 01:57:31;;;;;;;4.67;3.40;;;14.40;99.90;;;;;;5062659;28;20475;-80
2022/05/04 01:59:59;;;;;;;3.87;3.13;;;14.40;99.90;;;;;;5064048;28;20530;-80
2022/05/04 02:02:28;;;;;;;4.13;3.37;;;14.50;99.90;;;;;;5061646;28;21006;-81
2022/05/04 02:04:57;;;;;;;4.00;3.13;;;14.50;99.90;;;;;;5063138;28;20443;-80
2022/05/04 02:07:25;;;;;;;3.93;3.57;;;14.40;99.90;;;;;;5067307;28;20486;-80
2022/05/04 02:09:53;;;;;;;3.90;3.50;;;14.50;99.90;;;;;;5060918;28;20465;-80
2022/05/04 02:12:22;;;;;;;4.23;3.83;;;14.50;99.90;;;;;;5056409;28;21048;-80
2022/05/04 02:14:52;;;;;;;3.87;3.47;;;14.50;99.90;;;;;;5064664;28;20441;-78
2022/05/04 02:17:20;;;;;;;3.60;3.27;;;14.50;99.90;;;;;;5063426;28;20529;-80
2022/05/04 02:19:48;;;;;;;3.23;2.70;;;14.50;99.90;;;;;;5061618;28;20463;-78
2022/05/04 02:22:18;;;;;;;5.77;3.73;;;14.60;99.90;;;;;;5055907;28;20556;-80
2022/05/04 02:24:46;;;;;;;2.50;2.30;;;14.60;99.90;;;;;;5063097;28;20458;-80
2022/05/04 02:27:14;;;;;;;3.30;3.10;;;14.60;99.90;;;;;;5066736;28;20480;-82
2022/05/04 02:29:42;;;;;;;5.97;3.83;;;14.50;99.90;;;;;;5067809;28;20606;-80
2022/05/04 02:32:12;;;;;;;4.27;2.97;;;14.40;99.90;;;;;;5068948;28;20913;-80
2022/05/04 02:40:09;;;;;;;3.20;3.00;;;14.30;99.90;;;;;;5061632;28;20471;-80
2022/05/04 02:42:38;;;;;;;4.13;2.97;;;14.40;99.90;;;;;;5064963;28;20471;-80
2022/05/04 02:45:08;;;;;;;5.03;4.50;;;14.50;99.90;;;;;;5063720;28;20462;-80
2022/05/04 02:47:39;;;;;;;3.70;3.40;;;14.40;99.90;;;;;;5063044;28;21069;-79
2022/05/04 02:50:14;;;;;;;6.63;3.73;;;14.40;99.90;;;;;;5067339;28;20457;-80
2022/05/04 02:52:42;;;;;;;4.07;3.60;;;14.50;99.90;;;;;;5063919;28;20471;-79
2022/05/04 02:55:11;;;;;;;3.47;2.80;;;14.50;99.90;;;;;;5056896;28;20514;-79
2022/05/04 02:57:39;;;;;;;3.83;3.53;;;14.50;99.90;;;;;;5063880;28;20472;-79
2022/05/04 03:00:09;;;;;;;3.90;3.33;;;14.50;99.90;;;;;;5068733;28;20459;-80
2022/05/04 03:02:38;;;;;;;3.70;3.37;;;14.50;99.90;;;;;;5061917;28;20480;-79
2022/05/04 03:05:09;;;;;;;3.47;3.20;;;14.40;99.90;;;;;;5063134;28;20521;-79
2022/05/04 03:07:37;;;;;;;3.77;3.47;;;14.40;99.90;;;;;;5062063;28;20483;-79
2022/05/04 03:10:06;;;;;;;3.93;3.23;;;14.40;99.90;;;;;;5061987;28;20467;-80
2022/05/04 03:12:34;;;;;;;3.57;3.17;;;14.40;99.90;;;;;;5060568;28;20474;-79
2022/05/04 03:15:03;;;;;;;3.27;3.03;;;14.30;99.90;;;;;;5061726;28;20445;-81
2022/05/04 03:17:32;;;;;;;4.03;3.60;;;14.30;99.90;;;;;;5064703;28;20451;-80
2022/05/04 03:20:02;;;;;;;2.80;2.60;;;14.30;99.90;;;;;;5063725;28;20526;-79
2022/05/04 03:22:32;;;;;;;4.20;3.57;;;14.40;99.90;;;;;;5062507;28;20523;-79
2022/05/04 03:25:01;;;;;;;3.37;2.97;;;14.50;99.90;;;;;;5064818;28;20456;-79
2022/05/04 03:27:29;;;;;;;3.83;3.17;;;14.50;99.90;;;;;;5064649;28;20477;-79
2022/05/04 03:30:03;;;;;;;4.00;3.23;;;14.50;99.90;;;;;;5059532;28;20445;-79
2022/05/04 03:32:32;;;;;;;4.77;4.37;;;14.60;99.90;;;;;;5059930;28;20504;-79
2022/05/04 03:35:02;;;;;;;5.07;3.43;;;14.50;99.90;;;;;;5063003;28;20943;-79
2022/05/04 03:37:30;;;;;;;3.93;3.60;;;14.50;99.90;;;;;;5059688;28;20473;-79
2022/05/04 03:39:58;;;;;;;4.00;3.60;;;14.40;99.90;;;;;;5061877;28;20451;-79
2022/05/04 03:42:26;;;;;;;3.43;3.13;;;14.50;99.90;;;;;;5066055;28;20460;-80
2022/05/04 03:44:56;;;;;;;4.03;3.50;;;14.50;99.90;;;;;;5061661;28;20451;-80
2022/05/04 03:47:24;;;;;;;4.10;3.70;;;14.50;99.90;;;;;;5061039;28;20459;-79
2022/05/04 03:49:52;;;;;;;8.40;4.10;;;14.50;99.90;;;;;;5067314;28;20459;-77
2022/05/04 03:52:22;;;;;;;4.17;3.70;;;14.60;99.90;;;;;;5062200;28;20931;-80
2022/05/04 03:54:50;;;;;;;3.37;3.07;;;14.60;99.90;;;;;;5064952;28;20932;-79
2022/05/04 03:57:18;;;;;;;5.17;3.53;;;14.60;99.90;;;;;;5052993;28;20508;-80
2022/05/04 03:59:46;;;;;;;4.57;3.87;;;14.60;99.90;;;;;;5060666;28;20448;-80
2022/05/04 04:02:15;;;;;;;6.40;4.07;;;14.60;99.90;;;;;;5056436;28;20541;-80
2022/05/04 04:04:43;;;;;;;3.90;3.37;;;14.60;99.90;;;;;;5062056;28;20877;-79
2022/05/04 04:07:12;;;;;;;3.60;3.40;;;14.30;99.90;;;;;;5063967;28;20447;-79
2022/05/04 04:09:41;;;;;;;4.60;4.20;;;14.60;99.90;;;;;;5062206;28;20589;-80
2022/05/04 04:12:10;;;;;;;3.80;3.47;;;14.60;99.90;;;;;;5066063;28;20478;-80
2022/05/04 04:14:38;;;;;;;5.37;3.90;;;14.60;99.90;;;;;;5062898;28;20455;-78
2022/05/04 04:17:06;;;;;;;4.90;4.40;;;14.60;99.90;;;;;;5061363;28;21014;-77
2022/05/04 04:19:35;;;;;;;6.40;4.20;;;14.60;99.90;;;;;;5062170;28;20563;-78
2022/05/04 04:22:02;;;;;;;5.37;4.73;;;14.60;99.90;;;;;;5060789;28;20479;-80
2022/05/04 04:24:30;;;;;;;8.50;4.27;;;14.60;99.90;;;;;;5066156;28;20472;-81
2022/05/04 04:27:00;;;;;;;4.63;3.60;;;14.50;99.90;;;;;;5058303;28;20519;-80
2022/05/04 04:29:28;;;;;;;4.00;3.70;;;14.50;99.90;;;;;;5061877;28;20464;-81
2022/05/04 04:31:56;;;;;;;3.70;3.40;;;14.40;99.90;;;;;;5056334;28;20491;-80
2022/05/04 04:34:24;;;;;;;3.67;3.27;;;14.50;99.90;;;;;;5061763;28;21023;-80
2022/05/04 04:36:52;;;;;;;4.10;3.70;;;14.50;99.90;;;;;;5060285;28;20886;-80
2022/05/04 04:39:20;;;;;;;4.97;4.57;;;14.50;99.90;;;;;;5062863;28;20511;-79
2022/05/04 04:41:49;;;;;;;4.60;4.20;;;14.50;99.90;;;;;;5057746;28;20483;-80
2022/05/04 04:44:18;;;;;;;5.03;4.20;;;14.60;99.90;;;;;;5063758;28;20514;-81
2022/05/04 04:46:46;;;;;;;6.20;3.73;;;14.60;99.90;;;;;;5057576;28;20543;-80
2022/05/04 04:49:15;;;;;;;3.87;3.57;;;14.60;99.90;;;;;;5063448;28;21019;-80
2022/05/04 04:51:43;;;;;;;4.10;3.80;;;14.60;99.90;;;;;;5062679;28;20469;-81
2022/05/04 04:54:11;;;;;;;6.47;4.20;;;14.60;99.90;;;;;;5060544;28;20464;-79
2022/05/04 04:56:39;;;;;;;3.93;3.63;;;14.60;99.90;;;;;;5058646;28;20594;-79
2022/05/04 04:59:08;;;;;;;4.63;3.63;;;14.60;99.90;;;;;;5056618;28;20452;-79
2022/05/04 05:01:37;;;;;;;4.43;3.50;;;14.60;99.90;;;;;;5057541;28;20539;-78
2022/05/04 05:04:05;;;;;;;5.17;4.60;;;14.60;99.90;;;;;;5059896;28;20969;-80
2022/05/04 05:06:33;;;;;;;3.80;3.50;;;14.70;99.90;;;;;;5060015;28;20457;-80
2022/05/04 05:09:02;;;;;;;6.13;4.30;;;14.70;99.90;;;;;;5056468;28;20484;-80
2022/05/04 05:11:30;;;;;;;3.40;3.07;;;14.70;99.90;;;;;;5057654;28;20483;-79
2022/05/04 05:16:45;;;;;;;3.53;3.17;;;14.70;99.90;;;;;;5058616;28;20519;-80
2022/05/04 05:19:13;;;;;;;4.20;3.73;;;14.70;99.90;;;;;;5060509;28;20457;-79
2022/05/04 05:21:41;;;;;;;4.87;3.93;;;14.70;99.90;;;;;;5065691;28;20568;-78
2022/05/04 05:24:10;;;;;;;4.57;3.57;;;14.70;99.90;;;;;;5059576;28;20453;-79
2022/05/04 05:26:38;;;;;;;6.47;3.93;;;14.80;99.90;;;;;;5061737;28;20446;-79
2022/05/04 05:29:06;;;;;;;3.70;3.40;;;14.70;99.90;;;;;;5063889;28;21042;-79
2022/05/04 05:31:38;;;;;;;4.20;3.80;;;14.80;99.90;;;;;;5064637;28;21035;-79
2022/05/04 05:34:08;;;;;;;4.70;4.10;;;14.70;99.90;;;;;;5062663;28;20471;-78
2022/05/04 05:36:36;;;;;;;4.37;3.97;;;14.80;99.90;;;;;;5065205;28;20467;-79
2022/05/04 05:39:04;;;;;;;4.10;3.70;;;14.80;99.90;;;;;;5064722;28;20449;-77
2022/05/04 05:41:32;;;;;;;6.37;4.17;;;14.80;99.90;;;;;;5063913;28;20479;-79
2022/05/04 05:44:01;;;;;;;4.17;3.77;;;14.70;1.00;;;;;;5059667;28;20463;-78
2022/05/04 05:46:29;;;;;;;5.00;4.17;;;14.70;1.00;;;;;;5057435;28;21034;-79
2022/05/04 05:48:58;;;;;;;4.17;3.87;;;14.70;1.00;;;;;;5059305;28;20486;-78
2022/05/04 05:51:27;;;;;;;4.70;4.30;;;14.70;1.00;;;;;;5058729;28;20539;-78
2022/05/04 05:53:55;;;;;;;4.13;3.80;;;14.80;1.00;;;;;;5057603;28;20463;-78
2022/05/04 05:56:23;;;;;;;4.73;4.33;;;14.80;1.00;;;;;;5060763;28;20486;-79
2022/05/04 05:58:51;;;;;;;4.87;4.40;;;14.70;1.00;;;;;;5060187;28;20448;-79
2022/05/04 06:01:20;;;;;;;4.47;4.07;;;14.70;1.00;;;;;;5060403;28;20526;-80
2022/05/04 06:03:49;;;;;;;5.60;4.50;;;14.70;1.00;;;;;;5062867;28;21095;-80
2022/05/04 06:06:17;;;;;;;4.97;4.57;;;14.70;1.00;;;;;;5064246;28;20442;-80
2022/05/04 06:08:47;;;;;;;8.33;4.60;;;14.70;1.00;;;;;;5062305;28;20468;-78
2022/05/04 06:11:15;;;;;;;4.77;3.87;;;14.70;1.00;;;;;;5066280;28;21816;-79
2022/05/04 06:13:43;;;;;;;5.73;5.17;;;14.70;1.00;;;;;;5063473;28;20464;-78
2022/05/04 06:16:11;;;;;;;4.40;4.00;;;14.70;1.00;;;;;;5064795;28;20458;-79
2022/05/04 06:18:39;;;;;;;4.50;3.60;;;14.70;1.00;;;;;;5062875;28;20531;-78
2022/05/04 06:21:07;;;;;;;3.20;2.90;;;14.60;1.00;;;;;;5065841;28;20534;-79
2022/05/04 06:23:36;;;;;;;5.00;4.30;;;14.60;1.00;;;;;;5060056;28;20464;-79
2022/05/04 06:26:05;;;;;;;4.70;4.17;;;14.70;1.00;;;;;;5065848;28;20518;-79
2022/05/04 06:28:33;;;;;;;4.67;4.27;;;14.80;1.00;;;;;;5061129;28;20494;-78
2022/05/04 06:36:33;;;;;;;3.63;3.30;;;15.00;1.00;;;;;;5064882;28;20457;-78
2022/05/04 06:39:02;;;;;;;6.03;3.90;;;15.00;1.00;;;;;;5063735;28;20476;-78
2022/05/04 06:41:32;;;;;;;3.97;3.50;;;15.00;1.00;;;;;;5065248;28;20461;-78
2022/05/04 06:44:00;;;;;;;3.43;3.10;;;15.00;1.00;;;;;;5063918;28;20456;-78
2022/05/04 06:46:28;;;;;;;4.33;3.53;;;15.00;1.00;;;;;;5063508;28;20493;-78
2022/05/04 06:48:56;;;;;;;3.77;3.47;;;15.10;1.00;;;;;;5065589;28;20450;-78
2022/05/04 06:51:25;;;;;;;4.53;3.70;;;15.50;1.00;;;;;;5066807;28;20474;-78
2022/05/04 06:53:53;;;;;;;4.00;3.70;;;15.30;1.00;;;;;;5061352;28;20464;-79
2022/05/04 06:56:42;;;;;;;7.63;4.60;;;15.30;1.00;;;;;;5063427;28;20988;-79
2022/05/04 06:59:10;;;;;;;5.30;3.73;;;15.20;1.00;;;;;;5065761;28;20467;-79
2022/05/04 07:01:44;;;;;;;3.77;3.47;;;15.20;1.00;;;;;;5058473;28;20492;-79
2022/05/04 07:04:13;;;;;;;3.93;3.53;;;15.20;1.00;;;;;;5065712;28;20453;-79
2022/05/04 07:06:41;;;;;;;3.50;3.20;;;15.20;1.00;;;;;;5063647;28;20514;-79
2022/05/04 07:09:09;;;;;;;6.57;3.83;;;15.30;1.00;;;;;;5061973;28;20499;-78
2022/05/04 07:11:37;;;;;;;3.70;3.33;;;15.30;1.00;;;;;;5065868;28;20496;-79
2022/05/04 07:14:07;;;;;;;4.67;4.10;;;15.30;1.00;;;;;;5059727;28;20450;-79
2022/05/04 07:16:36;;;;;;;5.27;4.00;;;15.30;1.00;;;;;;5058795;28;20594;-78
2022/05/04 07:19:13;;;;;;;5.97;4.33;;;15.30;1.00;;;;;;5061193;28;20451;-79
2022/05/04 07:21:41;;;;;;;4.43;3.93;;;15.30;49.80;;;;;;5059872;28;20488;-79
2022/05/04 07:24:11;;;;;;;5.13;4.63;;;15.30;99.90;;;;;;5062895;28;20469;-79
2022/05/04 07:26:39;;;;;;;5.10;4.10;;;15.40;59.80;;;;;;5060413;28;20476;-78
2022/05/04 07:29:08;;;;;;;5.80;4.60;;;15.40;99.90;;;;;;5063957;28;20451;-79
2022/05/04 07:31:42;;;;;;;4.40;4.00;;;15.40;99.90;;;;;;5062085;28;20899;-79
2022/05/04 07:34:11;;;;;;;4.10;3.70;;;15.40;1.00;;;;;;5060585;28;20448;-78
2022/05/04 07:36:39;;;;;;;3.70;3.50;;;15.40;1.00;;;;;;5057140;28;20454;-79
2022/05/04 07:39:07;;;;;;;3.47;2.93;;;15.40;1.00;;;;;;5095240;28;20461;-79
2022/05/04 07:44:23;;;;;;;3.70;3.40;;;15.60;1.00;;;;;;5060467;28;20478;-79
2022/05/04 07:46:51;;;;;;;3.93;3.47;;;15.60;1.00;;;;;;5057184;28;20442;-79
2022/05/04 07:49:19;;;;;;;4.30;3.83;;;15.70;99.90;;;;;;5058897;28;20512;-79
2022/05/04 07:51:47;;;;;;;5.40;3.50;;;15.60;99.90;;;;;;5055690;28;20529;-79
2022/05/04 07:54:16;;;;;;;4.07;3.67;;;15.60;99.90;;;;;;5060365;28;20884;-79
2022/05/04 07:56:44;;;;;;;7.23;3.50;;;15.70;1.00;;;;;;5058156;28;20469;-79
2022/05/04 07:59:12;;;;;;;4.10;3.77;;;15.70;1.00;;;;;;5058777;28;20456;-79
2022/05/04 08:04:27;;;;;;;3.77;3.47;;;15.70;1.00;;;;;;5054709;28;20453;-79
2022/05/04 08:06:56;;;;;;;4.33;3.57;;;15.80;1.00;;;;;;5058303;28;20996;-78
2022/05/04 08:09:24;;;;;;;4.47;3.90;;;15.80;1.00;;;;;;5056651;28;20461;-80
2022/05/04 08:11:52;;;;;;;4.73;3.80;;;15.90;99.90;;;;;;5061040;28;20484;-80
2022/05/04 08:14:20;;;;;;;4.07;3.67;;;15.90;99.90;;;;;;5054328;28;20450;-78
2022/05/04 08:16:50;;;;;;;5.30;4.07;;;15.90;1.00;;;;;;5060382;28;20458;-79
2022/05/04 08:19:18;;;;;;;4.33;3.93;;;16.00;1.00;;;;;;5056419;28;20470;-79
2022/05/04 08:21:46;;;;;;;5.50;3.80;;;16.00;1.00;;;;;;5060244;28;21013;-79
2022/05/04 08:24:14;;;;;;;3.93;3.57;;;16.10;1.00;;;;;;5056273;28;20448;-80
2022/05/04 08:26:43;;;;;;;3.90;3.60;;;16.10;1.00;;;;;;5058562;28;20451;-78
2022/05/04 08:29:11;;;;;;;4.60;4.00;;;16.10;1.00;;;;;;5058326;28;20460;-79
2022/05/04 08:31:39;;;;;;;5.50;4.63;;;16.00;1.00;;;;;;5054871;28;20994;-78
2022/05/04 08:34:09;;;;;;;4.77;4.37;;;16.00;1.00;;;;;;5055686;28;20902;-78
2022/05/04 08:36:38;;;;;;;5.73;4.83;;;16.10;1.00;;;;;;5054658;28;20463;-79
2022/05/04 08:39:07;;;;;;;4.03;3.67;;;16.10;1.00;;;;;;5055492;28;20456;-78
2022/05/04 08:41:39;;;;;;;4.77;4.23;;;16.10;1.00;;;;;;5050290;28;21079;-79
2022/05/04 08:44:09;;;;;;;4.10;3.70;;;16.20;1.00;;;;;;5056892;28;20443;-79
2022/05/04 08:46:39;;;;;;;6.00;4.80;;;16.30;1.00;;;;;;5056971;28;21136;-79
2022/05/04 08:49:10;;;;;;;5.60;3.97;;;16.30;1.00;;;;;;5054224;28;21110;-78
2022/05/04 08:51:38;;;;;;;5.53;4.50;;;16.30;1.00;;;;;;5059234;28;20491;-77
2022/05/04 08:54:08;;;;;;;5.17;4.23;;;16.30;1.00;;;;;;5061461;28;20460;-78
2022/05/04 08:56:37;;;;;;;5.40;4.73;;;16.30;1.00;;;;;;5056788;28;20459;-78
2022/05/04 08:59:05;;;;;;;5.17;4.00;;;16.40;1.00;;;;;;5060076;28;20469;-79
2022/05/04 09:01:34;;;;;;;6.13;4.47;;;16.40;1.00;;;;;;5058244;28;20468;-78
2022/05/04 09:04:02;;;;;;;4.77;4.37;;;16.40;1.00;;;;;;5059462;28;20468;-78
2022/05/04 09:06:33;;;;;;;6.67;4.27;;;16.40;1.00;;;;;;5055411;28;21293;-78
2022/05/04 09:09:08;;;;;;;4.40;4.00;;;16.40;1.00;;;;;;5057409;28;21021;-79
2022/05/04 09:11:38;;;;;;;5.10;3.60;;;16.50;1.00;;;;;;5057264;28;20498;-76
2022/05/04 09:14:08;;;;;;;3.60;3.30;;;16.60;1.00;;;;;;5058277;28;20473;-78
2022/05/04 09:16:37;;;;;;;3.97;3.60;;;16.60;99.90;;;;;;5056881;28;20494;-78
2022/05/04 09:19:07;;;;;;;4.27;3.87;;;16.70;1.00;;;;;;5053908;28;20462;-78
2022/05/04 09:21:38;;;;;;;5.30;4.00;;;16.70;1.00;;;;;;5061491;28;20470;-79
2022/05/04 09:24:07;;;;;;;4.90;4.50;;;16.80;1.00;;;;;;5055888;28;20471;-78
2022/05/04 09:26:40;;;;;;;5.70;4.67;;;16.80;1.00;;;;;;5059550;28;20473;-79
2022/05/04 09:29:11;;;;;;;6.03;4.90;;;16.80;1.00;;;;;;5057831;28;20480;-78
2022/05/04 09:31:41;;;;;;;8.20;4.33;;;16.90;1.00;;;;;;5056636;28;21075;-78
2022/05/04 09:34:10;;;;;;;5.30;4.80;;;16.90;1.00;;;;;;5056695;28;20542;-78
2022/05/04 09:44:53;;;;;;;4.03;3.63;;;16.90;1.00;;;;;;5058769;28;20453;-79
2022/05/04 09:45:10;;;;;;;4.30;3.90;;;17.00;1.00;;;;;;5059945;28;20476;-79
2022/05/04 09:47:39;;;;;;;4.67;4.27;;;17.10;1.00;;;;;;5057815;28;20973;-79
2022/05/04 09:50:10;;;;;;;3.83;2.53;;;17.10;1.00;;;;;;5056606;28;20458;-79
2022/05/04 09:52:45;;;;;;;4.83;3.67;;;17.20;1.00;;;;;;5054523;28;20492;-79
2022/05/04 09:55:17;;;;;;;3.27;2.97;;;17.20;1.00;;;;;;5060559;28;20475;-79
2022/05/04 09:57:47;;;;;;;3.17;2.87;;;17.30;1.00;;;;;;5062054;28;20453;-79
2022/05/04 10:00:18;;;;;;;3.40;3.10;;;17.30;1.00;;;;;;5057571;28;20461;-79
2022/05/04 10:02:47;;;;;;;3.17;2.87;;;17.40;1.00;;;;;;5055142;28;20461;-79
2022/05/04 10:05:17;;;;;;;2.97;2.77;;;17.60;1.00;;;;;;5059240;28;20524;-79
2022/05/04 10:07:49;;;;;;;2.47;2.30;;;17.60;1.00;;;;;;5060485;28;21152;-79
2022/05/04 10:10:20;;;;;;;2.43;2.23;;;17.60;1.00;;;;;;5071832;28;20461;-79
2022/05/04 10:12:49;;;;;;;2.80;2.40;;;17.70;99.90;;;;;;5067524;28;20481;-79
2022/05/04 10:15:19;;;;;;;3.17;2.87;;;17.80;99.90;;;;;;5060928;28;20459;-79
2022/05/04 10:17:52;;;;;;;4.67;3.77;;;17.80;99.90;;;;;;5057502;28;20462;-79
2022/05/04 10:20:22;;;;;;;2.93;2.73;;;17.80;99.90;;;;;;5052712;28;20976;-79
2022/05/04 10:22:56;;;;;;;4.40;2.70;;;17.80;99.90;;;;;;5055389;28;20555;-78
2022/05/04 10:25:25;;;;;;;4.73;2.70;;;17.90;99.90;;;;;;5060471;28;20458;-79
2022/05/04 10:28:06;;;;;;;4.57;4.17;;;18.00;1.00;;;;;;5066353;28;20533;-80
2022/05/04 10:30:34;;;;;;;3.87;3.57;;;18.00;99.90;;;;;;5065309;28;20449;-79
2022/05/04 10:33:05;;;;;;;6.90;3.70;;;18.10;99.90;;;;;;5066017;28;21057;-79
2022/05/04 10:35:36;;;;;;;4.17;3.57;;;18.20;99.90;;;;;;5062852;28;20525;-80
2022/05/04 10:38:19;;;;;;;3.73;3.43;;;18.20;99.90;;;;;;5066573;28;20450;-79
2022/05/04 10:40:51;;;;;;;3.67;3.00;;;18.10;99.90;;;;;;5063418;28;20529;-78
2022/05/04 10:43:35;;;;;;;4.00;3.63;;;18.20;99.90;;;;;;5069155;28;20518;-79
2022/05/04 10:46:08;;;;;;;2.77;2.57;;;18.30;99.90;;;;;;5069741;28;21704;-81
2022/05/04 10:48:37;;;;;;;3.33;3.07;;;18.50;99.90;;;;;;5070725;28;20443;-79
2022/05/04 10:51:18;;;;;;;3.30;2.27;;;18.60;99.90;;;;;;5062269;28;20599;-80
2022/05/04 10:53:49;;;;;;;2.30;2.10;;;18.70;99.90;;;;;;5066739;28;20463;-79
2022/05/04 10:56:19;;;;;;;2.30;1.90;;;18.90;99.90;;;;;;5064000;28;20454;-79
2022/05/04 10:58:59;;;;;;;2.80;1.93;;;18.90;99.90;;;;;;5065529;28;20470;-80
2022/05/04 11:01:30;;;;;;;2.03;1.87;;;19.00;99.90;;;;;;5060322;28;20469;-79
2022/05/04 11:04:20;;;;;;;1.90;1.80;;;19.00;99.90;;;;;;5069315;28;20554;-81
2022/05/04 11:06:55;;;;;;;2.03;1.83;;;19.00;99.90;;;;;;5061007;28;20835;-79
2022/05/04 11:09:29;;;;;;;2.23;2.03;;;19.10;99.90;;;;;;5065187;28;20465;-80
2022/05/04 11:11:59;;;;;;;2.60;2.30;;;19.10;99.90;;;;;;5068455;28;21080;-80
2022/05/04 11:14:28;;;;;;;2.47;2.20;;;19.10;99.90;;;;;;5066351;28;20529;-79
2022/05/04 11:16:58;;;;;;;2.63;2.40;;;19.10;99.90;;;;;;5070242;28;20523;-79
2022/05/04 11:19:28;;;;;;;2.50;2.10;;;19.20;99.90;;;;;;5058976;28;20459;-79
2022/05/04 11:21:57;;;;;;;2.30;1.90;;;19.30;99.90;;;;;;5067788;28;20462;-80
2022/05/04 11:24:28;;;;;;;3.50;3.20;;;19.30;99.90;;;;;;5067658;28;21193;-79
2022/05/04 11:26:57;;;;;;;2.43;2.20;;;19.40;99.90;;;;;;5069862;28;20550;-79
2022/05/04 11:29:27;;;;;;;2.27;2.07;;;19.40;99.90;;;;;;5068836;28;20458;-79
2022/05/04 11:31:57;;;;;;;3.20;2.37;;;19.50;99.90;;;;;;5060995;28;20475;-79
2022/05/04 11:34:28;;;;;;;4.80;1.87;;;19.40;99.90;;;;;;5068600;28;20458;-80
2022/05/04 11:36:58;;;;;;;1.70;1.60;;;19.50;99.90;;;;;;5065997;28;20447;-79
2022/05/04 11:39:30;;;;;;;1.63;1.43;;;19.40;99.90;;;;;;5070453;28;20447;-79
2022/05/04 11:41:59;;;;;;;4.27;2.03;;;19.50;99.90;;;;;;5060403;28;20480;-80
2022/05/04 11:44:29;;;;;;;2.00;1.90;;;19.50;99.90;;;;;;5060888;28;20508;-80
2022/05/04 11:46:58;;;;;;;2.00;1.90;;;19.50;99.90;;;;;;5062542;28;20463;-79
2022/05/04 11:49:28;;;;;;;2.60;1.87;;;19.50;99.90;;;;;;5060233;28;20450;-81
2022/05/04 11:51:58;;;;;;;2.77;2.03;;;19.50;99.90;;;;;;5068711;28;20482;-80
2022/05/04 11:54:28;;;;;;;2.40;1.90;;;19.50;99.90;;;;;;5056613;28;20977;-80
2022/05/04 11:56:57;;;;;;;2.00;1.80;;;19.60;99.90;;;;;;5059976;28;20545;-80
2022/05/04 11:59:30;;;;;;;1.90;1.80;;;19.60;99.90;;;;;;5065463;28;20450;-79
2022/05/04 12:02:00;;;;;;;2.30;1.73;;;19.60;99.90;;;;;;5066104;28;20482;-80
2022/05/04 12:04:29;;;;;;;1.63;1.53;;;19.60;99.90;;;;;;5066693;28;20492;-78
2022/05/04 12:06:58;;;;;;;1.80;1.63;;;19.60;99.90;;;;;;5062976;28;21261;-78
2022/05/04 12:09:29;;;;;;;2.20;1.70;;;19.70;99.90;;;;;;5061754;28;20454;-78
2022/05/04 12:11:58;;;;;;;2.23;1.60;;;19.70;99.90;;;;;;5061616;28;21217;-76
2022/05/04 12:14:27;;;;;;;3.20;2.50;;;19.80;99.90;;;;;;5059615;28;20447;-77
2022/05/04 12:16:57;;;;;;;2.03;1.57;;;19.70;99.90;;;;;;5066582;28;20451;-79
2022/05/04 12:19:29;;;;;;;1.50;1.40;;;19.60;99.90;;;;;;5068457;28;20512;-78
2022/05/04 12:21:58;;;;;;;2.57;1.43;;;19.60;99.90;;;;;;5067390;28;20933;-79
2022/05/04 12:24:28;;;;;;;5.00;1.80;;;19.60;99.90;;;;;;5054326;28;20455;-78
2022/05/04 12:26:56;;;;;;;1.70;1.60;;;19.70;99.90;;;;;;5057257;28;20517;-78
2022/05/04 12:34:57;;;;;;;1.43;1.33;;;19.80;99.90;;;;;;5065908;28;20451;-78
2022/05/04 12:37:31;;;;;;;1.50;1.40;;;19.80;99.90;;;;;;5063554;28;20454;-78
2022/05/04 12:40:03;;;;;;;1.90;1.70;;;19.80;99.90;;;;;;5063141;28;20478;-78
2022/05/04 12:42:31;;;;;;;1.60;1.50;;;19.80;99.90;;;;;;5059736;28;20474;-80
2022/05/04 12:45:01;;;;;;;2.33;1.30;;;19.80;99.90;;;;;;5057660;28;20493;-80
2022/05/04 12:47:30;;;;;;;2.53;1.50;;;19.70;99.90;;;;;;5064415;28;20458;-79
2022/05/04 12:49:58;;;;;;;1.60;1.50;;;19.70;99.90;;;;;;5065414;28;20466;-80
2022/05/04 12:52:26;;;;;;;2.07;1.50;;;19.60;99.90;;;;;;5066671;28;20982;-79
2022/05/04 12:54:54;;;;;;;1.90;1.70;;;19.50;99.90;;;;;;5067038;28;20459;-78
2022/05/04 12:57:25;;;;;;;5.27;2.57;;;19.50;99.90;;;;;;5065658;28;20524;-80
2022/05/04 12:59:53;;;;;;;3.20;2.30;;;19.40;99.90;;;;;;5067445;28;20458;-80
2022/05/04 13:02:21;;;;;;;3.13;2.30;;;19.30;99.90;;;;;;5066027;28;20466;-80
2022/05/04 13:04:50;;;;;;;2.40;2.20;;;19.20;99.90;;;;;;5063704;28;22669;-80
2022/05/04 13:07:19;;;;;;;2.40;2.20;;;19.10;99.90;;;;;;5061538;28;20585;-79
2022/05/04 13:09:47;;;;;;;2.37;1.97;;;19.10;99.90;;;;;;5065245;28;20446;-80
2022/05/04 13:12:15;;;;;;;4.03;1.70;;;19.20;99.90;;;;;;5058204;28;20482;-80
2022/05/04 13:14:45;;;;;;;2.93;2.37;;;19.00;99.90;;;;;;5060889;28;20442;-81
2022/05/04 13:17:13;;;;;;;1.83;1.73;;;18.70;99.90;;;;;;5065851;28;20464;-80
2022/05/04 13:19:41;;;;;;;1.73;1.40;;;18.60;99.90;;;;;;5064451;28;20611;-79
2022/05/04 13:22:09;;;;;;;1.40;1.30;;;18.40;99.90;;;;;;5064769;28;20997;-78
2022/05/04 13:24:37;;;;;;;2.13;1.30;;;17.90;99.90;;;;;;5057587;28;20459;-79
2022/05/04 13:27:06;;;;;;;1.60;1.50;;;17.90;99.90;;;;;;5060773;28;20499;-79
2022/05/04 13:29:34;;;;;;;1.77;1.50;;;18.00;99.90;;;;;;5094541;28;21239;-79
2022/05/04 13:32:05;;;;;;;4.97;1.53;;;18.10;99.90;;;;;;5060775;28;20508;-79